sensor_id;sensor_type;location;lat;lon;timestamp;temperature;humidity
44990;DHT22;30723;51.206;3.326;2023-10-19T00:00:40;16.20;99.90
44990;DHT22;30723;51.206;3.326;2023-10-19T00:03:18;16.10;99.90
44990;DHT22;30723;51.206;3.326;2023-10-19T00:05:45;16.10;99.90
44990;DHT22;30723;51.206;3.326;2023-10-19T00:08:13;16.10;99.90
44990;DHT22;30723;51.206;3.326;2023-10-19T00:10:43;16.00;99.90
44990;DHT22;30723;51.206;3.326;2023-10-19T00:13:11;16.00;99.90
44990;DHT22;30723;51.206;3.326;2023-10-19T00:15:41;16.00;99.90
44990;DHT22;30723;51.206;3.326;2023-10-19T00:18:28;16.00;99.90
44990;DHT22;30723;51.206;3.326;2023-10-19T00:20:58;16.10;99.90
44990;DHT22;30723;51.206;3.326;2023-10-19T00:23:42;16.00;99.90
44990;DHT22;30723;51.206;3.326;2023-10-19T00:26:08;16.00;99.90
44990;DHT22;30723;51.206;3.326;2023-10-19T00:28:35;16.10;99.90
44990;DHT22;30723;51.206;3.326;2023-10-19T00:31:01;16.10;99.90
44990;DHT22;30723;51.206;3.326;2023-10-19T00:33:34;16.10;99.90
44990;DHT22;30723;51.206;3.326;2023-10-19T00:36:08;16.10;99.90
44990;DHT22;30723;51.206;3.326;2023-10-19T00:38:38;16.20;99.90
44990;DHT22;30723;51.206;3.326;2023-10-19T00:41:08;16.20;99.90
44990;DHT22;30723;51.206;3.326;2023-10-19T00:43:39;16.30;99.90
44990;DHT22;30723;51.206;3.326;2023-10-19T00:46:12;16.30;99.90
44990;DHT22;30723;51.206;3.326;2023-10-19T00:48:51;16.30;99.90
44990;DHT22;30723;51.206;3.326;2023-10-19T00:51:21;16.30;99.90
44990;DHT22;30723;51.206;3.326;2023-10-19T00:54:06;16.30;99.90
44990;DHT22;30723;51.206;3.326;2023-10-19T00:56:43;16.30;99.90
44990;DHT22;30723;51.206;3.326;2023-10-19T00:59:19;16.30;99.90
44990;DHT22;30723;51.206;3.326;2023-10-19T01:02:05;16.30;99.90
44990;DHT22;30723;51.206;3.326;2023-10-19T01:04:44;16.30;99.90
44990;DHT22;30723;51.206;3.326;2023-10-19T01:07:11;16.30;99.90
44990;DHT22;30723;51.206;3.326;2023-10-19T01:09:44;16.40;99.90
44990;DHT22;30723;51.206;3.326;2023-10-19T01:12:10;16.40;99.90
44990;DHT22;30723;51.206;3.326;2023-10-19T01:17:52;16.40;99.90
44990;DHT22;30723;51.206;3.326;2023-10-19T01:20:32;16.40;99.90
44990;DHT22;30723;51.206;3.326;2023-10-19T01:23:06;16.50;99.90
44990;DHT22;30723;51.206;3.326;2023-10-19T01:25:50;16.50;99.90
44990;DHT22;30723;51.206;3.326;2023-10-19T01:28:20;16.40;99.90
44990;DHT22;30723;51.206;3.326;2023-10-19T01:31:04;16.30;99.90
44990;DHT22;30723;51.206;3.326;2023-10-19T01:33:33;16.40;99.90
44990;DHT22;30723;51.206;3.326;2023-10-19T01:36:00;16.40;99.90
44990;DHT22;30723;51.206;3.326;2023-10-19T01:38:45;16.40;99.90
44990;DHT22;30723;51.206;3.326;2023-10-19T01:41:13;16.40;99.90
44990;DHT22;30723;51.206;3.326;2023-10-19T01:43:41;16.40;99.90
44990;DHT22;30723;51.206;3.326;2023-10-19T01:46:08;16.30;99.90
44990;DHT22;30723;51.206;3.326;2023-10-19T01:48:44;16.30;99.90
44990;DHT22;30723;51.206;3.326;2023-10-19T01:51:11;16.30;99.90
44990;DHT22;30723;51.206;3.326;2023-10-19T01:53:37;16.30;99.90
44990;DHT22;30723;51.206;3.326;2023-10-19T01:56:13;16.30;99.90
44990;DHT22;30723;51.206;3.326;2023-10-19T01:58:41;16.30;99.90
44990;DHT22;30723;51.206;3.326;2023-10-19T02:01:08;16.30;99.90
44990;DHT22;30723;51.206;3.326;2023-10-19T02:03:38;16.40;99.90
44990;DHT22;30723;51.206;3.326;2023-10-19T02:06:10;16.30;99.90
44990;DHT22;30723;51.206;3.326;2023-10-19T02:08:46;16.30;99.90
44990;DHT22;30723;51.206;3.326;2023-10-19T02:11:20;16.30;99.90
44990;DHT22;30723;51.206;3.326;2023-10-19T02:13:47;16.30;99.90
44990;DHT22;30723;51.206;3.326;2023-10-19T02:16:15;16.30;99.90
44990;DHT22;30723;51.206;3.326;2023-10-19T02:18:42;16.30;99.90
44990;DHT22;30723;51.206;3.326;2023-10-19T02:21:08;16.20;99.90
44990;DHT22;30723;51.206;3.326;2023-10-19T02:23:38;16.30;99.90
44990;DHT22;30723;51.206;3.326;2023-10-19T02:26:05;16.20;99.90
44990;DHT22;30723;51.206;3.326;2023-10-19T02:28:31;16.30;99.90
44990;DHT22;30723;51.206;3.326;2023-10-19T02:30:58;16.20;99.90
44990;DHT22;30723;51.206;3.326;2023-10-19T02:33:36;16.30;99.90
44990;DHT22;30723;51.206;3.326;2023-10-19T02:36:02;16.30;99.90
44990;DHT22;30723;51.206;3.326;2023-10-19T02:38:29;16.30;99.90
44990;DHT22;30723;51.206;3.326;2023-10-19T02:40:55;16.30;99.90
44990;DHT22;30723;51.206;3.326;2023-10-19T02:43:21;16.20;99.90
44990;DHT22;30723;51.206;3.326;2023-10-19T02:45:49;16.20;99.90
44990;DHT22;30723;51.206;3.326;2023-10-19T02:48:17;16.20;99.90
44990;DHT22;30723;51.206;3.326;2023-10-19T02:50:43;16.20;99.90
44990;DHT22;30723;51.206;3.326;2023-10-19T02:53:09;16.10;99.90
44990;DHT22;30723;51.206;3.326;2023-10-19T02:55:39;16.10;99.90
44990;DHT22;30723;51.206;3.326;2023-10-19T02:58:06;16.00;99.90
44990;DHT22;30723;51.206;3.326;2023-10-19T03:00:32;16.00;99.90
44990;DHT22;30723;51.206;3.326;2023-10-19T03:03:02;16.00;99.90
44990;DHT22;30723;51.206;3.326;2023-10-19T03:05:31;16.10;99.90
44990;DHT22;30723;51.206;3.326;2023-10-19T03:07:57;16.10;99.90
44990;DHT22;30723;51.206;3.326;2023-10-19T03:10:22;16.10;99.90
44990;DHT22;30723;51.206;3.326;2023-10-19T03:12:50;16.20;99.90
44990;DHT22;30723;51.206;3.326;2023-10-19T03:15:17;16.20;99.90
44990;DHT22;30723;51.206;3.326;2023-10-19T03:17:46;16.20;99.90
44990;DHT22;30723;51.206;3.326;2023-10-19T03:20:12;16.20;99.90
44990;DHT22;30723;51.206;3.326;2023-10-19T03:22:42;16.20;99.90
44990;DHT22;30723;51.206;3.326;2023-10-19T03:25:09;16.20;99.90
44990;DHT22;30723;51.206;3.326;2023-10-19T03:27:57;16.20;99.90
44990;DHT22;30723;51.206;3.326;2023-10-19T03:30:32;16.20;99.90
44990;DHT22;30723;51.206;3.326;2023-10-19T03:32:58;16.20;99.90
44990;DHT22;30723;51.206;3.326;2023-10-19T03:35:25;16.20;99.90
44990;DHT22;30723;51.206;3.326;2023-10-19T03:37:52;16.20;99.90
44990;DHT22;30723;51.206;3.326;2023-10-19T03:40:17;16.20;99.90
44990;DHT22;30723;51.206;3.326;2023-10-19T03:42:53;16.20;99.90
44990;DHT22;30723;51.206;3.326;2023-10-19T03:45:20;16.20;99.90
44990;DHT22;30723;51.206;3.326;2023-10-19T03:47:50;16.20;99.90
44990;DHT22;30723;51.206;3.326;2023-10-19T03:50:19;16.30;99.90
44990;DHT22;30723;51.206;3.326;2023-10-19T03:52:48;16.30;99.90
44990;DHT22;30723;51.206;3.326;2023-10-19T03:55:14;16.30;99.90
44990;DHT22;30723;51.206;3.326;2023-10-19T03:57:44;16.20;99.90
44990;DHT22;30723;51.206;3.326;2023-10-19T04:00:17;16.30;99.90
44990;DHT22;30723;51.206;3.326;2023-10-19T04:02:44;16.30;99.90
44990;DHT22;30723;51.206;3.326;2023-10-19T04:05:10;16.30;99.90
44990;DHT22;30723;51.206;3.326;2023-10-19T04:07:41;16.30;99.90
44990;DHT22;30723;51.206;3.326;2023-10-19T04:10:08;16.30;99.90
44990;DHT22;30723;51.206;3.326;2023-10-19T04:12:38;16.20;99.90
44990;DHT22;30723;51.206;3.326;2023-10-19T04:15:05;16.20;99.90
44990;DHT22;30723;51.206;3.326;2023-10-19T04:17:45;16.20;99.90
44990;DHT22;30723;51.206;3.326;2023-10-19T04:20:12;16.20;99.90
44990;DHT22;30723;51.206;3.326;2023-10-19T04:22:49;16.30;99.90
44990;DHT22;30723;51.206;3.326;2023-10-19T04:25:16;16.30;99.90
44990;DHT22;30723;51.206;3.326;2023-10-19T04:27:45;16.30;99.90
44990;DHT22;30723;51.206;3.326;2023-10-19T04:30:13;16.40;99.90
44990;DHT22;30723;51.206;3.326;2023-10-19T04:32:45;16.30;99.90
44990;DHT22;30723;51.206;3.326;2023-10-19T04:35:12;16.30;99.90
44990;DHT22;30723;51.206;3.326;2023-10-19T04:37:50;16.40;99.90
44990;DHT22;30723;51.206;3.326;2023-10-19T04:40:18;16.40;99.90
44990;DHT22;30723;51.206;3.326;2023-10-19T04:42:45;16.50;99.90
44990;DHT22;30723;51.206;3.326;2023-10-19T04:45:11;16.40;99.90
44990;DHT22;30723;51.206;3.326;2023-10-19T04:47:38;16.40;99.90
44990;DHT22;30723;51.206;3.326;2023-10-19T04:50:05;16.40;99.90
44990;DHT22;30723;51.206;3.326;2023-10-19T04:52:32;16.40;99.90
44990;DHT22;30723;51.206;3.326;2023-10-19T04:54:59;16.40;99.90
44990;DHT22;30723;51.206;3.326;2023-10-19T04:57:25;16.40;99.90
44990;DHT22;30723;51.206;3.326;2023-10-19T04:59:54;16.30;99.90
44990;DHT22;30723;51.206;3.326;2023-10-19T05:02:21;16.30;99.90
44990;DHT22;30723;51.206;3.326;2023-10-19T05:04:46;16.30;99.90
44990;DHT22;30723;51.206;3.326;2023-10-19T05:07:12;16.30;99.90
44990;DHT22;30723;51.206;3.326;2023-10-19T05:09:45;16.30;99.90
44990;DHT22;30723;51.206;3.326;2023-10-19T05:12:13;16.30;99.90
44990;DHT22;30723;51.206;3.326;2023-10-19T05:14:40;16.30;99.90
44990;DHT22;30723;51.206;3.326;2023-10-19T05:17:09;16.20;99.90
44990;DHT22;30723;51.206;3.326;2023-10-19T05:19:36;16.30;99.90
44990;DHT22;30723;51.206;3.326;2023-10-19T05:22:04;16.20;99.90
44990;DHT22;30723;51.206;3.326;2023-10-19T05:24:31;16.20;99.90
44990;DHT22;30723;51.206;3.326;2023-10-19T05:26:57;16.20;99.90
44990;DHT22;30723;51.206;3.326;2023-10-19T05:29:23;16.20;99.90
44990;DHT22;30723;51.206;3.326;2023-10-19T05:31:51;16.20;99.90
44990;DHT22;30723;51.206;3.326;2023-10-19T05:34:22;16.10;99.90
44990;DHT22;30723;51.206;3.326;2023-10-19T05:36:49;16.00;99.90
44990;DHT22;30723;51.206;3.326;2023-10-19T05:39:18;16.00;99.90
44990;DHT22;30723;51.206;3.326;2023-10-19T05:41:44;16.10;99.90
44990;DHT22;30723;51.206;3.326;2023-10-19T05:44:10;16.00;99.90
44990;DHT22;30723;51.206;3.326;2023-10-19T05:46:36;16.00;99.90
44990;DHT22;30723;51.206;3.326;2023-10-19T05:49:02;16.00;99.90
44990;DHT22;30723;51.206;3.326;2023-10-19T05:51:30;15.90;99.90
44990;DHT22;30723;51.206;3.326;2023-10-19T05:53:56;15.80;99.90
44990;DHT22;30723;51.206;3.326;2023-10-19T05:56:28;15.80;99.90
44990;DHT22;30723;51.206;3.326;2023-10-19T05:58:54;15.80;99.90
44990;DHT22;30723;51.206;3.326;2023-10-19T06:01:20;15.80;99.90
44990;DHT22;30723;51.206;3.326;2023-10-19T06:03:47;15.80;99.90
44990;DHT22;30723;51.206;3.326;2023-10-19T06:06:13;15.80;99.90
44990;DHT22;30723;51.206;3.326;2023-10-19T06:08:40;15.80;99.90
44990;DHT22;30723;51.206;3.326;2023-10-19T06:11:06;15.80;99.90
44990;DHT22;30723;51.206;3.326;2023-10-19T06:13:32;15.70;99.90
44990;DHT22;30723;51.206;3.326;2023-10-19T06:15:58;15.70;99.90
44990;DHT22;30723;51.206;3.326;2023-10-19T06:18:23;15.80;99.90
44990;DHT22;30723;51.206;3.326;2023-10-19T06:20:50;15.80;99.90
44990;DHT22;30723;51.206;3.326;2023-10-19T06:23:17;15.80;99.90
44990;DHT22;30723;51.206;3.326;2023-10-19T06:25:43;15.80;99.90
44990;DHT22;30723;51.206;3.326;2023-10-19T06:28:10;15.80;99.90
44990;DHT22;30723;51.206;3.326;2023-10-19T06:30:39;15.80;99.90
44990;DHT22;30723;51.206;3.326;2023-10-19T06:33:06;15.80;99.90
44990;DHT22;30723;51.206;3.326;2023-10-19T06:35:33;15.80;99.90
44990;DHT22;30723;51.206;3.326;2023-10-19T06:38:00;15.80;99.90
44990;DHT22;30723;51.206;3.326;2023-10-19T06:40:27;15.70;99.90
44990;DHT22;30723;51.206;3.326;2023-10-19T06:42:56;15.70;99.90
44990;DHT22;30723;51.206;3.326;2023-10-19T06:45:22;15.70;99.90
44990;DHT22;30723;51.206;3.326;2023-10-19T06:47:50;15.80;99.90
44990;DHT22;30723;51.206;3.326;2023-10-19T06:50:18;15.80;99.90
44990;DHT22;30723;51.206;3.326;2023-10-19T06:52:45;15.90;99.90
44990;DHT22;30723;51.206;3.326;2023-10-19T06:55:15;15.90;99.90
44990;DHT22;30723;51.206;3.326;2023-10-19T06:57:53;16.00;99.90
44990;DHT22;30723;51.206;3.326;2023-10-19T07:00:21;16.10;99.90
44990;DHT22;30723;51.206;3.326;2023-10-19T07:02:49;16.10;99.90
44990;DHT22;30723;51.206;3.326;2023-10-19T07:05:16;16.10;99.90
44990;DHT22;30723;51.206;3.326;2023-10-19T07:07:52;16.10;99.90
44990;DHT22;30723;51.206;3.326;2023-10-19T07:10:20;16.20;99.90
44990;DHT22;30723;51.206;3.326;2023-10-19T07:12:53;16.20;99.90
44990;DHT22;30723;51.206;3.326;2023-10-19T07:15:19;16.10;99.90
44990;DHT22;30723;51.206;3.326;2023-10-19T07:17:48;16.20;99.90
44990;DHT22;30723;51.206;3.326;2023-10-19T07:20:16;16.20;99.90
44990;DHT22;30723;51.206;3.326;2023-10-19T07:22:55;16.20;99.90
44990;DHT22;30723;51.206;3.326;2023-10-19T07:25:22;16.30;99.90
44990;DHT22;30723;51.206;3.326;2023-10-19T07:27:49;16.30;99.90
44990;DHT22;30723;51.206;3.326;2023-10-19T07:30:21;16.30;99.90
44990;DHT22;30723;51.206;3.326;2023-10-19T07:32:48;16.20;99.90
44990;DHT22;30723;51.206;3.326;2023-10-19T07:35:18;16.20;99.90
44990;DHT22;30723;51.206;3.326;2023-10-19T07:37:44;16.30;99.90
44990;DHT22;30723;51.206;3.326;2023-10-19T07:40:11;16.40;99.90
44990;DHT22;30723;51.206;3.326;2023-10-19T07:42:40;16.40;99.90
44990;DHT22;30723;51.206;3.326;2023-10-19T07:45:08;16.50;99.90
44990;DHT22;30723;51.206;3.326;2023-10-19T07:47:40;16.50;99.90
44990;DHT22;30723;51.206;3.326;2023-10-19T07:50:07;16.60;99.90
44990;DHT22;30723;51.206;3.326;2023-10-19T07:52:38;16.60;99.90
44990;DHT22;30723;51.206;3.326;2023-10-19T07:55:05;16.70;99.90
44990;DHT22;30723;51.206;3.326;2023-10-19T07:57:32;16.80;99.90
44990;DHT22;30723;51.206;3.326;2023-10-19T07:59:59;16.80;99.90
44990;DHT22;30723;51.206;3.326;2023-10-19T08:02:25;16.90;99.90
44990;DHT22;30723;51.206;3.326;2023-10-19T08:04:52;16.90;99.90
44990;DHT22;30723;51.206;3.326;2023-10-19T08:07:18;16.90;99.90
44990;DHT22;30723;51.206;3.326;2023-10-19T08:09:44;16.90;99.90
44990;DHT22;30723;51.206;3.326;2023-10-19T08:12:10;17.00;99.90
44990;DHT22;30723;51.206;3.326;2023-10-19T08:14:39;17.00;99.90
44990;DHT22;30723;51.206;3.326;2023-10-19T08:17:05;17.00;99.90
44990;DHT22;30723;51.206;3.326;2023-10-19T08:19:34;17.10;99.90
44990;DHT22;30723;51.206;3.326;2023-10-19T08:22:01;17.10;99.90
44990;DHT22;30723;51.206;3.326;2023-10-19T08:24:30;17.10;99.90
44990;DHT22;30723;51.206;3.326;2023-10-19T08:26:56;17.20;99.90
44990;DHT22;30723;51.206;3.326;2023-10-19T08:29:22;17.20;99.90
44990;DHT22;30723;51.206;3.326;2023-10-19T08:31:49;17.30;99.90
44990;DHT22;30723;51.206;3.326;2023-10-19T08:34:15;17.30;99.90
44990;DHT22;30723;51.206;3.326;2023-10-19T08:36:42;17.40;99.90
44990;DHT22;30723;51.206;3.326;2023-10-19T08:39:09;17.50;99.90
44990;DHT22;30723;51.206;3.326;2023-10-19T08:41:38;17.50;99.90
44990;DHT22;30723;51.206;3.326;2023-10-19T08:44:06;17.70;99.90
44990;DHT22;30723;51.206;3.326;2023-10-19T08:46:45;17.90;99.90
44990;DHT22;30723;51.206;3.326;2023-10-19T08:49:15;18.10;99.90
44990;DHT22;30723;51.206;3.326;2023-10-19T08:51:45;18.30;99.90
44990;DHT22;30723;51.206;3.326;2023-10-19T08:54:12;18.40;99.90
44990;DHT22;30723;51.206;3.326;2023-10-19T08:56:39;18.50;99.90
44990;DHT22;30723;51.206;3.326;2023-10-19T08:59:10;18.50;99.90
44990;DHT22;30723;51.206;3.326;2023-10-19T09:01:41;18.50;99.90
44990;DHT22;30723;51.206;3.326;2023-10-19T09:04:10;18.50;99.90
44990;DHT22;30723;51.206;3.326;2023-10-19T09:06:37;18.50;99.90
44990;DHT22;30723;51.206;3.326;2023-10-19T09:09:13;18.50;99.90
44990;DHT22;30723;51.206;3.326;2023-10-19T09:11:48;18.50;99.90
44990;DHT22;30723;51.206;3.326;2023-10-19T09:14:15;18.60;99.90
44990;DHT22;30723;51.206;3.326;2023-10-19T09:16:56;18.70;99.90
44990;DHT22;30723;51.206;3.326;2023-10-19T09:22:04;18.80;99.90
44990;DHT22;30723;51.206;3.326;2023-10-19T09:24:34;18.80;99.90
44990;DHT22;30723;51.206;3.326;2023-10-19T09:27:03;18.90;99.90
44990;DHT22;30723;51.206;3.326;2023-10-19T09:29:29;19.00;99.90
44990;DHT22;30723;51.206;3.326;2023-10-19T09:31:58;19.10;99.90
44990;DHT22;30723;51.206;3.326;2023-10-19T09:34:30;19.10;99.90
44990;DHT22;30723;51.206;3.326;2023-10-19T09:37:02;19.10;99.90
44990;DHT22;30723;51.206;3.326;2023-10-19T09:39:30;18.90;99.90
44990;DHT22;30723;51.206;3.326;2023-10-19T09:42:09;18.80;99.90
44990;DHT22;30723;51.206;3.326;2023-10-19T09:44:54;18.70;99.90
44990;DHT22;30723;51.206;3.326;2023-10-19T09:47:31;18.80;99.90
44990;DHT22;30723;51.206;3.326;2023-10-19T09:50:02;18.80;99.90
44990;DHT22;30723;51.206;3.326;2023-10-19T09:52:31;18.80;99.90
44990;DHT22;30723;51.206;3.326;2023-10-19T09:55:03;18.80;99.90
44990;DHT22;30723;51.206;3.326;2023-10-19T09:57:35;18.90;99.90
44990;DHT22;30723;51.206;3.326;2023-10-19T10:00:04;18.90;99.90
44990;DHT22;30723;51.206;3.326;2023-10-19T10:02:44;18.90;99.90
44990;DHT22;30723;51.206;3.326;2023-10-19T10:10:49;18.70;99.90
44990;DHT22;30723;51.206;3.326;2023-10-19T10:13:41;18.70;99.90
44990;DHT22;30723;51.206;3.326;2023-10-19T10:16:07;18.70;99.90
44990;DHT22;30723;51.206;3.326;2023-10-19T10:18:34;18.60;99.90
44990;DHT22;30723;51.206;3.326;2023-10-19T10:21:07;18.50;99.90
44990;DHT22;30723;51.206;3.326;2023-10-19T10:23:50;18.50;99.90
44990;DHT22;30723;51.206;3.326;2023-10-19T10:26:19;18.40;99.90
44990;DHT22;30723;51.206;3.326;2023-10-19T10:28:50;18.20;99.90
44990;DHT22;30723;51.206;3.326;2023-10-19T10:31:35;18.00;99.90
44990;DHT22;30723;51.206;3.326;2023-10-19T10:34:08;17.90;99.90
44990;DHT22;30723;51.206;3.326;2023-10-19T10:37:00;17.90;99.90
44990;DHT22;30723;51.206;3.326;2023-10-19T10:39:28;17.80;99.90
44990;DHT22;30723;51.206;3.326;2023-10-19T10:42:00;17.80;99.90
44990;DHT22;30723;51.206;3.326;2023-10-19T10:44:45;17.80;99.90
44990;DHT22;30723;51.206;3.326;2023-10-19T10:47:19;17.90;99.90
44990;DHT22;30723;51.206;3.326;2023-10-19T10:49:57;17.90;99.90
44990;DHT22;30723;51.206;3.326;2023-10-19T10:52:31;17.80;99.90
44990;DHT22;30723;51.206;3.326;2023-10-19T10:54:58;17.80;99.90
44990;DHT22;30723;51.206;3.326;2023-10-19T10:57:31;17.80;99.90
44990;DHT22;30723;51.206;3.326;2023-10-19T11:00:02;17.80;99.90
44990;DHT22;30723;51.206;3.326;2023-10-19T11:02:29;17.90;99.90
44990;DHT22;30723;51.206;3.326;2023-10-19T11:04:55;18.00;99.90
44990;DHT22;30723;51.206;3.326;2023-10-19T11:07:21;18.10;99.90
44990;DHT22;30723;51.206;3.326;2023-10-19T11:09:47;18.30;99.90
44990;DHT22;30723;51.206;3.326;2023-10-19T11:12:14;18.60;99.90
44990;DHT22;30723;51.206;3.326;2023-10-19T11:14:58;19.30;99.90
44990;DHT22;30723;51.206;3.326;2023-10-19T11:17:45;19.90;99.90
44990;DHT22;30723;51.206;3.326;2023-10-19T11:20:21;20.50;99.90
44990;DHT22;30723;51.206;3.326;2023-10-19T11:22:51;20.70;99.90
44990;DHT22;30723;51.206;3.326;2023-10-19T11:25:25;20.70;99.90
44990;DHT22;30723;51.206;3.326;2023-10-19T11:27:57;20.50;99.90
44990;DHT22;30723;51.206;3.326;2023-10-19T11:30:30;20.30;99.90
44990;DHT22;30723;51.206;3.326;2023-10-19T11:32:59;20.10;99.90
44990;DHT22;30723;51.206;3.326;2023-10-19T11:35:31;19.90;99.90
44990;DHT22;30723;51.206;3.326;2023-10-19T11:37:59;19.70;99.90
44990;DHT22;30723;51.206;3.326;2023-10-19T11:40:26;19.60;99.90
44990;DHT22;30723;51.206;3.326;2023-10-19T11:42:53;19.50;99.90
44990;DHT22;30723;51.206;3.326;2023-10-19T11:45:22;19.30;99.90
44990;DHT22;30723;51.206;3.326;2023-10-19T11:47:51;19.30;99.90
44990;DHT22;30723;51.206;3.326;2023-10-19T11:50:17;19.20;99.90
44990;DHT22;30723;51.206;3.326;2023-10-19T11:52:46;19.10;99.90
44990;DHT22;30723;51.206;3.326;2023-10-19T11:55:13;19.10;99.90
44990;DHT22;30723;51.206;3.326;2023-10-19T11:57:45;19.10;99.90
44990;DHT22;30723;51.206;3.326;2023-10-19T12:00:14;19.10;99.90
44990;DHT22;30723;51.206;3.326;2023-10-19T12:02:45;19.20;99.90
44990;DHT22;30723;51.206;3.326;2023-10-19T12:05:11;19.30;99.90
44990;DHT22;30723;51.206;3.326;2023-10-19T12:07:37;19.30;99.90
44990;DHT22;30723;51.206;3.326;2023-10-19T12:10:08;19.40;99.90
44990;DHT22;30723;51.206;3.326;2023-10-19T12:12:35;19.40;99.90
44990;DHT22;30723;51.206;3.326;2023-10-19T12:15:05;19.40;99.90
44990;DHT22;30723;51.206;3.326;2023-10-19T12:17:32;19.40;99.90
44990;DHT22;30723;51.206;3.326;2023-10-19T12:19:57;19.50;99.90
44990;DHT22;30723;51.206;3.326;2023-10-19T12:22:25;19.70;99.90
44990;DHT22;30723;51.206;3.326;2023-10-19T12:24:56;19.80;99.90
44990;DHT22;30723;51.206;3.326;2023-10-19T12:27:23;19.90;99.90
44990;DHT22;30723;51.206;3.326;2023-10-19T12:29:51;19.80;99.90
44990;DHT22;30723;51.206;3.326;2023-10-19T12:32:18;19.80;99.90
44990;DHT22;30723;51.206;3.326;2023-10-19T12:34:44;19.70;99.90
44990;DHT22;30723;51.206;3.326;2023-10-19T12:37:10;19.70;99.90
44990;DHT22;30723;51.206;3.326;2023-10-19T12:39:38;19.60;99.90
44990;DHT22;30723;51.206;3.326;2023-10-19T12:42:13;19.50;99.90
44990;DHT22;30723;51.206;3.326;2023-10-19T12:44:40;19.50;99.90
44990;DHT22;30723;51.206;3.326;2023-10-19T12:47:10;19.50;99.90
44990;DHT22;30723;51.206;3.326;2023-10-19T12:49:40;19.50;99.90
44990;DHT22;30723;51.206;3.326;2023-10-19T12:52:09;19.40;99.90
44990;DHT22;30723;51.206;3.326;2023-10-19T12:54:37;19.50;99.90
44990;DHT22;30723;51.206;3.326;2023-10-19T12:57:04;19.50;99.90
44990;DHT22;30723;51.206;3.326;2023-10-19T12:59:32;19.50;99.90
44990;DHT22;30723;51.206;3.326;2023-10-19T13:01:59;19.50;99.90
44990;DHT22;30723;51.206;3.326;2023-10-19T13:04:28;19.50;99.90
44990;DHT22;30723;51.206;3.326;2023-10-19T13:06:56;19.50;99.90
44990;DHT22;30723;51.206;3.326;2023-10-19T13:09:26;19.50;99.90
44990;DHT22;30723;51.206;3.326;2023-10-19T13:11:59;19.60;99.90
44990;DHT22;30723;51.206;3.326;2023-10-19T13:14:26;19.70;99.90
44990;DHT22;30723;51.206;3.326;2023-10-19T13:16:52;19.90;99.90
44990;DHT22;30723;51.206;3.326;2023-10-19T13:19:20;20.20;99.90
44990;DHT22;30723;51.206;3.326;2023-10-19T13:21:50;20.40;99.90
44990;DHT22;30723;51.206;3.326;2023-10-19T13:24:17;20.60;99.90
44990;DHT22;30723;51.206;3.326;2023-10-19T13:26:43;20.60;99.90
44990;DHT22;30723;51.206;3.326;2023-10-19T13:29:12;20.70;99.90
44990;DHT22;30723;51.206;3.326;2023-10-19T13:31:40;20.70;99.90
44990;DHT22;30723;51.206;3.326;2023-10-19T13:34:06;20.60;99.90
44990;DHT22;30723;51.206;3.326;2023-10-19T13:36:36;20.40;99.90
44990;DHT22;30723;51.206;3.326;2023-10-19T13:39:02;20.40;99.90
44990;DHT22;30723;51.206;3.326;2023-10-19T13:41:32;20.30;99.90
44990;DHT22;30723;51.206;3.326;2023-10-19T13:43:57;20.20;99.90
44990;DHT22;30723;51.206;3.326;2023-10-19T13:46:23;20.20;99.90
44990;DHT22;30723;51.206;3.326;2023-10-19T13:48:50;20.10;99.90
44990;DHT22;30723;51.206;3.326;2023-10-19T13:51:16;20.00;99.90
44990;DHT22;30723;51.206;3.326;2023-10-19T13:53:44;20.00;99.90
44990;DHT22;30723;51.206;3.326;2023-10-19T13:56:11;20.00;99.90
44990;DHT22;30723;51.206;3.326;2023-10-19T13:58:38;20.00;99.90
44990;DHT22;30723;51.206;3.326;2023-10-19T14:01:10;20.00;99.90
44990;DHT22;30723;51.206;3.326;2023-10-19T14:03:37;20.00;99.90
44990;DHT22;30723;51.206;3.326;2023-10-19T14:06:03;20.00;99.90
44990;DHT22;30723;51.206;3.326;2023-10-19T14:08:29;20.10;99.90
44990;DHT22;30723;51.206;3.326;2023-10-19T14:11:05;20.10;99.90
44990;DHT22;30723;51.206;3.326;2023-10-19T14:13:32;20.20;99.90
44990;DHT22;30723;51.206;3.326;2023-10-19T14:15:57;20.30;99.90
44990;DHT22;30723;51.206;3.326;2023-10-19T14:18:23;20.40;99.90
44990;DHT22;30723;51.206;3.326;2023-10-19T14:20:49;21.30;99.90
44990;DHT22;30723;51.206;3.326;2023-10-19T14:23:15;22.60;99.90
44990;DHT22;30723;51.206;3.326;2023-10-19T14:25:40;23.50;99.90
44990;DHT22;30723;51.206;3.326;2023-10-19T14:28:08;23.80;99.90
44990;DHT22;30723;51.206;3.326;2023-10-19T14:30:35;24.30;99.90
44990;DHT22;30723;51.206;3.326;2023-10-19T14:33:01;24.40;99.90
44990;DHT22;30723;51.206;3.326;2023-10-19T14:35:28;24.50;99.90
44990;DHT22;30723;51.206;3.326;2023-10-19T14:37:55;24.60;99.90
44990;DHT22;30723;51.206;3.326;2023-10-19T14:40:24;25.00;99.90
44990;DHT22;30723;51.206;3.326;2023-10-19T14:42:51;25.30;99.90
44990;DHT22;30723;51.206;3.326;2023-10-19T14:45:21;25.60;99.90
44990;DHT22;30723;51.206;3.326;2023-10-19T14:47:52;25.30;99.90
44990;DHT22;30723;51.206;3.326;2023-10-19T14:50:20;24.90;99.90
44990;DHT22;30723;51.206;3.326;2023-10-19T14:52:49;25.10;99.90
44990;DHT22;30723;51.206;3.326;2023-10-19T14:55:17;25.10;99.90
44990;DHT22;30723;51.206;3.326;2023-10-19T14:57:45;25.30;99.90
44990;DHT22;30723;51.206;3.326;2023-10-19T15:00:12;25.20;99.90
44990;DHT22;30723;51.206;3.326;2023-10-19T15:02:48;25.10;99.90
44990;DHT22;30723;51.206;3.326;2023-10-19T15:05:18;25.10;99.90
44990;DHT22;30723;51.206;3.326;2023-10-19T15:07:47;25.20;99.90
44990;DHT22;30723;51.206;3.326;2023-10-19T15:10:19;25.30;99.90
44990;DHT22;30723;51.206;3.326;2023-10-19T15:12:44;25.10;99.90
44990;DHT22;30723;51.206;3.326;2023-10-19T15:15:11;25.10;99.90
44990;DHT22;30723;51.206;3.326;2023-10-19T15:17:37;25.10;99.90
44990;DHT22;30723;51.206;3.326;2023-10-19T15:20:05;25.00;99.90
44990;DHT22;30723;51.206;3.326;2023-10-19T15:22:31;25.00;99.90
44990;DHT22;30723;51.206;3.326;2023-10-19T15:24:58;24.70;99.90
44990;DHT22;30723;51.206;3.326;2023-10-19T15:27:24;23.90;99.90
44990;DHT22;30723;51.206;3.326;2023-10-19T15:29:50;23.30;99.90
44990;DHT22;30723;51.206;3.326;2023-10-19T15:32:16;22.60;99.90
44990;DHT22;30723;51.206;3.326;2023-10-19T15:34:42;22.10;99.90
44990;DHT22;30723;51.206;3.326;2023-10-19T15:37:08;21.80;99.90
44990;DHT22;30723;51.206;3.326;2023-10-19T15:39:34;21.50;99.90
44990;DHT22;30723;51.206;3.326;2023-10-19T15:42:00;21.20;99.90
44990;DHT22;30723;51.206;3.326;2023-10-19T15:44:26;21.00;99.90
44990;DHT22;30723;51.206;3.326;2023-10-19T15:46:52;20.80;99.90
44990;DHT22;30723;51.206;3.326;2023-10-19T15:49:20;20.60;99.90
44990;DHT22;30723;51.206;3.326;2023-10-19T15:51:47;20.60;99.90
44990;DHT22;30723;51.206;3.326;2023-10-19T15:54:13;20.40;99.90